sensor_id;sensor_type;location;lat;lon;timestamp;P1;durP1;ratioP1;P2;durP2;ratioP2
48629;SDS011;34426;52.180;4.462;2022-11-20T00:00:27;23.25;;;16.88;;
48629;SDS011;34426;52.180;4.462;2022-11-20T00:02:53;23.33;;;14.85;;
48629;SDS011;34426;52.180;4.462;2022-11-20T00:05:19;21.30;;;14.90;;
48629;SDS011;34426;52.180;4.462;2022-11-20T00:07:47;21.02;;;15.25;;
48629;SDS011;34426;52.180;4.462;2022-11-20T00:10:13;22.80;;;15.63;;
48629;SDS011;34426;52.180;4.462;2022-11-20T00:12:40;21.88;;;15.93;;
48629;SDS011;34426;52.180;4.462;2022-11-20T00:15:06;22.48;;;15.80;;
48629;SDS011;34426;52.180;4.462;2022-11-20T00:17:32;25.77;;;16.10;;
48629;SDS011;34426;52.180;4.462;2022-11-20T00:19:58;20.65;;;14.85;;
48629;SDS011;34426;52.180;4.462;2022-11-20T00:22:24;21.52;;;15.02;;
48629;SDS011;34426;52.180;4.462;2022-11-20T00:24:52;21.63;;;16.38;;
48629;SDS011;34426;52.180;4.462;2022-11-20T00:27:19;22.52;;;16.10;;
48629;SDS011;34426;52.180;4.462;2022-11-20T00:29:45;23.42;;;16.60;;
48629;SDS011;34426;52.180;4.462;2022-11-20T00:32:11;25.85;;;17.63;;
48629;SDS011;34426;52.180;4.462;2022-11-20T00:34:37;25.80;;;16.48;;
48629;SDS011;34426;52.180;4.462;2022-11-20T00:37:03;24.83;;;16.30;;
48629;SDS011;34426;52.180;4.462;2022-11-20T00:39:29;21.63;;;16.45;;
48629;SDS011;34426;52.180;4.462;2022-11-20T00:41:57;22.63;;;15.55;;
48629;SDS011;34426;52.180;4.462;2022-11-20T00:44:24;23.90;;;16.77;;
48629;SDS011;34426;52.180;4.462;2022-11-20T00:46:50;21.77;;;16.13;;
48629;SDS011;34426;52.180;4.462;2022-11-20T00:49:16;24.13;;;16.13;;
48629;SDS011;34426;52.180;4.462;2022-11-20T00:51:42;23.40;;;16.83;;
48629;SDS011;34426;52.180;4.462;2022-11-20T00:54:08;23.17;;;17.60;;
48629;SDS011;34426;52.180;4.462;2022-11-20T00:56:35;21.80;;;16.27;;
48629;SDS011;34426;52.180;4.462;2022-11-20T00:59:02;23.10;;;16.65;;
48629;SDS011;34426;52.180;4.462;2022-11-20T01:01:29;22.05;;;16.63;;
48629;SDS011;34426;52.180;4.462;2022-11-20T01:03:56;22.90;;;16.55;;
48629;SDS011;34426;52.180;4.462;2022-11-20T01:06:22;23.42;;;16.70;;
48629;SDS011;34426;52.180;4.462;2022-11-20T01:08:49;21.73;;;16.08;;
48629;SDS011;34426;52.180;4.462;2022-11-20T01:11:16;26.98;;;16.85;;
48629;SDS011;34426;52.180;4.462;2022-11-20T01:13:42;20.48;;;16.05;;
48629;SDS011;34426;52.180;4.462;2022-11-20T01:16:11;22.20;;;16.55;;
48629;SDS011;34426;52.180;4.462;2022-11-20T01:18:38;22.45;;;16.48;;
48629;SDS011;34426;52.180;4.462;2022-11-20T01:21:05;21.48;;;15.63;;
48629;SDS011;34426;52.180;4.462;2022-11-20T01:23:32;23.48;;;16.92;;
48629;SDS011;34426;52.180;4.462;2022-11-20T01:25:59;22.13;;;15.73;;
48629;SDS011;34426;52.180;4.462;2022-11-20T01:28:25;28.02;;;16.75;;
48629;SDS011;34426;52.180;4.462;2022-11-20T01:30:51;25.80;;;17.13;;
48629;SDS011;34426;52.180;4.462;2022-11-20T01:33:19;26.50;;;17.83;;
48629;SDS011;34426;52.180;4.462;2022-11-20T01:35:46;27.20;;;16.50;;
48629;SDS011;34426;52.180;4.462;2022-11-20T01:38:12;22.45;;;16.83;;
48629;SDS011;34426;52.180;4.462;2022-11-20T01:40:38;22.83;;;17.58;;
48629;SDS011;34426;52.180;4.462;2022-11-20T01:43:09;26.50;;;17.55;;
48629;SDS011;34426;52.180;4.462;2022-11-20T01:48:02;23.65;;;16.23;;
48629;SDS011;34426;52.180;4.462;2022-11-20T01:50:30;23.40;;;16.40;;
48629;SDS011;34426;52.180;4.462;2022-11-20T01:52:57;25.63;;;17.15;;
48629;SDS011;34426;52.180;4.462;2022-11-20T01:55:25;23.65;;;16.55;;
48629;SDS011;34426;52.180;4.462;2022-11-20T01:57:51;23.20;;;16.30;;
48629;SDS011;34426;52.180;4.462;2022-11-20T02:00:18;26.38;;;18.10;;
48629;SDS011;34426;52.180;4.462;2022-11-20T02:02:46;24.58;;;17.75;;
48629;SDS011;34426;52.180;4.462;2022-11-20T02:05:14;24.10;;;16.73;;
48629;SDS011;34426;52.180;4.462;2022-11-20T02:07:45;24.92;;;17.55;;
48629;SDS011;34426;52.180;4.462;2022-11-20T02:10:12;28.40;;;17.45;;
48629;SDS011;34426;52.180;4.462;2022-11-20T02:12:38;24.50;;;16.95;;
48629;SDS011;34426;52.180;4.462;2022-11-20T02:15:05;25.38;;;17.90;;
48629;SDS011;34426;52.180;4.462;2022-11-20T02:17:31;26.55;;;17.27;;
48629;SDS011;34426;52.180;4.462;2022-11-20T02:19:57;24.40;;;16.90;;
48629;SDS011;34426;52.180;4.462;2022-11-20T02:22:24;24.38;;;17.25;;
48629;SDS011;34426;52.180;4.462;2022-11-20T02:24:56;25.75;;;17.83;;
48629;SDS011;34426;52.180;4.462;2022-11-20T02:27:22;24.50;;;16.30;;
48629;SDS011;34426;52.180;4.462;2022-11-20T02:29:49;23.48;;;17.08;;
48629;SDS011;34426;52.180;4.462;2022-11-20T02:32:19;21.80;;;16.90;;
48629;SDS011;34426;52.180;4.462;2022-11-20T02:34:46;26.27;;;17.88;;
48629;SDS011;34426;52.180;4.462;2022-11-20T02:37:12;27.10;;;17.27;;
48629;SDS011;34426;52.180;4.462;2022-11-20T02:39:39;24.52;;;15.50;;
48629;SDS011;34426;52.180;4.462;2022-11-20T02:42:07;26.38;;;17.67;;
48629;SDS011;34426;52.180;4.462;2022-11-20T02:44:34;25.30;;;17.52;;
48629;SDS011;34426;52.180;4.462;2022-11-20T02:47:00;23.17;;;17.20;;
48629;SDS011;34426;52.180;4.462;2022-11-20T02:49:26;24.25;;;16.55;;
48629;SDS011;34426;52.180;4.462;2022-11-20T02:51:52;24.35;;;16.52;;
48629;SDS011;34426;52.180;4.462;2022-11-20T02:54:18;23.73;;;16.35;;
48629;SDS011;34426;52.180;4.462;2022-11-20T02:56:45;23.27;;;17.27;;
48629;SDS011;34426;52.180;4.462;2022-11-20T02:59:13;25.17;;;18.83;;
48629;SDS011;34426;52.180;4.462;2022-11-20T03:01:39;23.98;;;17.35;;
48629;SDS011;34426;52.180;4.462;2022-11-20T03:04:05;25.98;;;17.45;;
48629;SDS011;34426;52.180;4.462;2022-11-20T03:06:31;25.85;;;17.98;;
48629;SDS011;34426;52.180;4.462;2022-11-20T03:08:58;25.80;;;17.38;;
48629;SDS011;34426;52.180;4.462;2022-11-20T03:11:24;26.02;;;19.33;;
48629;SDS011;34426;52.180;4.462;2022-11-20T03:13:50;24.73;;;17.98;;
48629;SDS011;34426;52.180;4.462;2022-11-20T03:16:18;24.00;;;18.13;;
48629;SDS011;34426;52.180;4.462;2022-11-20T03:18:45;25.25;;;18.30;;
48629;SDS011;34426;52.180;4.462;2022-11-20T03:21:11;24.98;;;18.05;;
48629;SDS011;34426;52.180;4.462;2022-11-20T03:23:37;26.52;;;18.48;;
48629;SDS011;34426;52.180;4.462;2022-11-20T03:26:07;25.70;;;17.92;;
48629;SDS011;34426;52.180;4.462;2022-11-20T03:28:33;25.73;;;18.35;;
48629;SDS011;34426;52.180;4.462;2022-11-20T03:31:04;25.70;;;17.65;;
48629;SDS011;34426;52.180;4.462;2022-11-20T03:33:32;31.70;;;18.10;;
48629;SDS011;34426;52.180;4.462;2022-11-20T03:36:00;24.65;;;16.60;;
48629;SDS011;34426;52.180;4.462;2022-11-20T03:38:28;25.13;;;17.55;;
48629;SDS011;34426;52.180;4.462;2022-11-20T03:40:57;22.92;;;18.38;;
48629;SDS011;34426;52.180;4.462;2022-11-20T03:43:23;29.92;;;18.27;;
48629;SDS011;34426;52.180;4.462;2022-11-20T03:45:49;22.90;;;16.88;;
48629;SDS011;34426;52.180;4.462;2022-11-20T03:48:15;23.75;;;17.20;;
48629;SDS011;34426;52.180;4.462;2022-11-20T03:50:44;25.83;;;17.45;;
48629;SDS011;34426;52.180;4.462;2022-11-20T03:53:10;24.90;;;18.75;;
48629;SDS011;34426;52.180;4.462;2022-11-20T03:55:36;23.83;;;17.98;;
48629;SDS011;34426;52.180;4.462;2022-11-20T03:58:02;26.15;;;18.17;;
48629;SDS011;34426;52.180;4.462;2022-11-20T04:00:28;23.90;;;17.63;;
48629;SDS011;34426;52.180;4.462;2022-11-20T04:02:57;27.75;;;18.42;;
48629;SDS011;34426;52.180;4.462;2022-11-20T04:05:23;25.40;;;18.30;;
48629;SDS011;34426;52.180;4.462;2022-11-20T04:07:51;25.40;;;18.52;;
48629;SDS011;34426;52.180;4.462;2022-11-20T04:10:18;26.55;;;18.70;;
48629;SDS011;34426;52.180;4.462;2022-11-20T04:12:44;25.00;;;17.35;;
48629;SDS011;34426;52.180;4.462;2022-11-20T04:15:10;25.98;;;18.50;;
48629;SDS011;34426;52.180;4.462;2022-11-20T04:17:36;26.02;;;17.55;;
48629;SDS011;34426;52.180;4.462;2022-11-20T04:20:03;31.85;;;19.45;;
48629;SDS011;34426;52.180;4.462;2022-11-20T04:22:29;25.98;;;19.17;;
48629;SDS011;34426;52.180;4.462;2022-11-20T04:24:57;27.92;;;18.67;;
48629;SDS011;34426;52.180;4.462;2022-11-20T04:27:23;25.52;;;17.23;;
48629;SDS011;34426;52.180;4.462;2022-11-20T04:29:49;27.10;;;18.92;;
48629;SDS011;34426;52.180;4.462;2022-11-20T04:32:15;29.17;;;19.65;;
48629;SDS011;34426;52.180;4.462;2022-11-20T04:34:42;27.10;;;20.00;;
48629;SDS011;34426;52.180;4.462;2022-11-20T04:37:08;27.52;;;19.02;;
48629;SDS011;34426;52.180;4.462;2022-11-20T04:39:34;28.52;;;19.60;;
48629;SDS011;34426;52.180;4.462;2022-11-20T04:42:02;29.20;;;19.10;;
48629;SDS011;34426;52.180;4.462;2022-11-20T04:44:28;23.77;;;18.13;;
48629;SDS011;34426;52.180;4.462;2022-11-20T04:46:54;30.27;;;19.90;;
48629;SDS011;34426;52.180;4.462;2022-11-20T04:49:20;29.90;;;19.50;;
48629;SDS011;34426;52.180;4.462;2022-11-20T04:51:47;25.80;;;18.60;;
48629;SDS011;34426;52.180;4.462;2022-11-20T04:54:13;26.75;;;17.70;;
48629;SDS011;34426;52.180;4.462;2022-11-20T04:56:39;28.70;;;18.45;;
48629;SDS011;34426;52.180;4.462;2022-11-20T04:59:07;25.95;;;19.17;;
48629;SDS011;34426;52.180;4.462;2022-11-20T05:01:33;28.38;;;18.90;;
48629;SDS011;34426;52.180;4.462;2022-11-20T05:03:59;29.15;;;18.83;;
48629;SDS011;34426;52.180;4.462;2022-11-20T05:06:25;28.92;;;18.80;;
48629;SDS011;34426;52.180;4.462;2022-11-20T05:08:51;25.98;;;18.80;;
48629;SDS011;34426;52.180;4.462;2022-11-20T05:11:18;26.58;;;18.00;;
48629;SDS011;34426;52.180;4.462;2022-11-20T05:13:45;27.75;;;18.48;;
48629;SDS011;34426;52.180;4.462;2022-11-20T05:16:13;27.58;;;18.85;;
48629;SDS011;34426;52.180;4.462;2022-11-20T05:18:40;26.20;;;19.15;;
48629;SDS011;34426;52.180;4.462;2022-11-20T05:21:07;26.65;;;18.77;;
48629;SDS011;34426;52.180;4.462;2022-11-20T05:23:34;26.25;;;18.75;;
48629;SDS011;34426;52.180;4.462;2022-11-20T05:26:00;27.58;;;19.65;;
48629;SDS011;34426;52.180;4.462;2022-11-20T05:28:27;32.45;;;20.85;;
48629;SDS011;34426;52.180;4.462;2022-11-20T05:30:53;27.40;;;20.13;;
48629;SDS011;34426;52.180;4.462;2022-11-20T05:33:21;28.65;;;19.50;;
48629;SDS011;34426;52.180;4.462;2022-11-20T05:35:48;28.30;;;19.98;;
48629;SDS011;34426;52.180;4.462;2022-11-20T05:38:14;28.00;;;20.05;;
48629;SDS011;34426;52.180;4.462;2022-11-20T05:40:40;25.33;;;19.15;;
48629;SDS011;34426;52.180;4.462;2022-11-20T05:43:06;30.02;;;20.35;;
48629;SDS011;34426;52.180;4.462;2022-11-20T05:45:33;27.90;;;19.80;;
48629;SDS011;34426;52.180;4.462;2022-11-20T05:47:59;24.48;;;18.67;;
48629;SDS011;34426;52.180;4.462;2022-11-20T05:50:27;31.50;;;20.98;;
48629;SDS011;34426;52.180;4.462;2022-11-20T05:52:54;31.08;;;20.27;;
48629;SDS011;34426;52.180;4.462;2022-11-20T05:55:20;27.88;;;19.88;;
48629;SDS011;34426;52.180;4.462;2022-11-20T05:57:46;28.10;;;19.83;;
48629;SDS011;34426;52.180;4.462;2022-11-20T06:02:39;28.38;;;20.17;;
48629;SDS011;34426;52.180;4.462;2022-11-20T06:05:05;28.15;;;20.48;;
48629;SDS011;34426;52.180;4.462;2022-11-20T06:07:33;27.52;;;19.40;;
48629;SDS011;34426;52.180;4.462;2022-11-20T06:10:00;29.17;;;20.45;;
48629;SDS011;34426;52.180;4.462;2022-11-20T06:12:26;28.58;;;20.23;;
48629;SDS011;34426;52.180;4.462;2022-11-20T06:14:52;36.35;;;20.52;;
48629;SDS011;34426;52.180;4.462;2022-11-20T06:17:18;28.40;;;20.67;;
48629;SDS011;34426;52.180;4.462;2022-11-20T06:19:44;29.98;;;19.42;;
48629;SDS011;34426;52.180;4.462;2022-11-20T06:22:11;29.20;;;20.15;;
48629;SDS011;34426;52.180;4.462;2022-11-20T06:24:39;30.75;;;20.83;;
48629;SDS011;34426;52.180;4.462;2022-11-20T06:27:05;30.23;;;20.83;;
48629;SDS011;34426;52.180;4.462;2022-11-20T06:29:31;29.13;;;20.02;;
48629;SDS011;34426;52.180;4.462;2022-11-20T06:32:00;26.65;;;20.38;;
48629;SDS011;34426;52.180;4.462;2022-11-20T06:34:26;29.92;;;20.48;;
48629;SDS011;34426;52.180;4.462;2022-11-20T06:36:52;29.65;;;20.23;;
48629;SDS011;34426;52.180;4.462;2022-11-20T06:39:18;33.63;;;21.08;;
48629;SDS011;34426;52.180;4.462;2022-11-20T06:41:46;30.70;;;20.05;;
48629;SDS011;34426;52.180;4.462;2022-11-20T06:44:12;29.77;;;20.30;;
48629;SDS011;34426;52.180;4.462;2022-11-20T06:46:38;34.08;;;20.55;;
48629;SDS011;34426;52.180;4.462;2022-11-20T06:49:05;29.27;;;20.65;;
48629;SDS011;34426;52.180;4.462;2022-11-20T06:51:31;29.35;;;21.17;;
48629;SDS011;34426;52.180;4.462;2022-11-20T06:53:57;25.95;;;21.25;;
48629;SDS011;34426;52.180;4.462;2022-11-20T06:56:23;31.23;;;20.73;;
48629;SDS011;34426;52.180;4.462;2022-11-20T06:58:51;33.22;;;21.63;;
48629;SDS011;34426;52.180;4.462;2022-11-20T07:01:17;32.65;;;21.10;;
48629;SDS011;34426;52.180;4.462;2022-11-20T07:03:43;33.72;;;21.67;;
48629;SDS011;34426;52.180;4.462;2022-11-20T07:06:09;28.98;;;21.60;;
48629;SDS011;34426;52.180;4.462;2022-11-20T07:08:35;33.47;;;22.85;;
48629;SDS011;34426;52.180;4.462;2022-11-20T07:11:02;30.15;;;22.15;;
48629;SDS011;34426;52.180;4.462;2022-11-20T07:13:28;30.85;;;21.83;;
48629;SDS011;34426;52.180;4.462;2022-11-20T07:15:58;29.65;;;21.75;;
48629;SDS011;34426;52.180;4.462;2022-11-20T07:18:25;33.50;;;22.40;;
48629;SDS011;34426;52.180;4.462;2022-11-20T07:20:51;32.35;;;23.33;;
48629;SDS011;34426;52.180;4.462;2022-11-20T07:23:17;35.15;;;22.67;;
48629;SDS011;34426;52.180;4.462;2022-11-20T07:25:43;29.52;;;21.83;;
48629;SDS011;34426;52.180;4.462;2022-11-20T07:28:09;29.98;;;22.25;;
48629;SDS011;34426;52.180;4.462;2022-11-20T07:30:36;32.10;;;21.83;;
48629;SDS011;34426;52.180;4.462;2022-11-20T07:33:02;31.15;;;21.67;;
48629;SDS011;34426;52.180;4.462;2022-11-20T07:35:28;30.42;;;22.80;;
48629;SDS011;34426;52.180;4.462;2022-11-20T07:37:53;29.30;;;21.20;;
48629;SDS011;34426;52.180;4.462;2022-11-20T07:40:18;36.63;;;22.15;;
48629;SDS011;34426;52.180;4.462;2022-11-20T07:42:48;35.17;;;23.65;;
48629;SDS011;34426;52.180;4.462;2022-11-20T07:45:14;31.88;;;21.75;;
48629;SDS011;34426;52.180;4.462;2022-11-20T07:47:40;32.95;;;23.10;;
48629;SDS011;34426;52.180;4.462;2022-11-20T07:50:08;32.67;;;21.73;;
48629;SDS011;34426;52.180;4.462;2022-11-20T07:52:35;31.73;;;21.85;;
48629;SDS011;34426;52.180;4.462;2022-11-20T07:55:01;34.38;;;22.75;;
48629;SDS011;34426;52.180;4.462;2022-11-20T07:57:27;32.92;;;23.75;;
48629;SDS011;34426;52.180;4.462;2022-11-20T07:59:53;34.85;;;24.15;;
48629;SDS011;34426;52.180;4.462;2022-11-20T08:02:20;33.63;;;25.20;;
48629;SDS011;34426;52.180;4.462;2022-11-20T08:04:46;31.52;;;23.42;;
48629;SDS011;34426;52.180;4.462;2022-11-20T08:07:14;34.25;;;24.02;;
48629;SDS011;34426;52.180;4.462;2022-11-20T08:09:40;35.40;;;22.15;;
48629;SDS011;34426;52.180;4.462;2022-11-20T08:12:07;30.08;;;22.52;;
48629;SDS011;34426;52.180;4.462;2022-11-20T08:14:33;30.95;;;22.85;;
48629;SDS011;34426;52.180;4.462;2022-11-20T08:16:59;31.05;;;22.95;;
48629;SDS011;34426;52.180;4.462;2022-11-20T08:19:25;32.90;;;23.15;;
48629;SDS011;34426;52.180;4.462;2022-11-20T08:21:51;30.30;;;22.25;;
48629;SDS011;34426;52.180;4.462;2022-11-20T08:24:19;34.33;;;23.27;;
48629;SDS011;34426;52.180;4.462;2022-11-20T08:26:46;31.45;;;22.88;;
48629;SDS011;34426;52.180;4.462;2022-11-20T08:29:12;33.15;;;23.38;;
48629;SDS011;34426;52.180;4.462;2022-11-20T08:31:38;30.75;;;23.83;;
48629;SDS011;34426;52.180;4.462;2022-11-20T08:34:04;32.17;;;23.27;;
48629;SDS011;34426;52.180;4.462;2022-11-20T08:36:32;33.60;;;23.30;;
48629;SDS011;34426;52.180;4.462;2022-11-20T08:38:59;30.60;;;23.67;;
48629;SDS011;34426;52.180;4.462;2022-11-20T08:41:27;34.28;;;23.35;;
48629;SDS011;34426;52.180;4.462;2022-11-20T08:43:53;32.92;;;24.25;;
48629;SDS011;34426;52.180;4.462;2022-11-20T08:46:20;33.55;;;23.50;;
48629;SDS011;34426;52.180;4.462;2022-11-20T08:48:46;32.40;;;23.90;;
48629;SDS011;34426;52.180;4.462;2022-11-20T08:51:12;30.52;;;22.50;;
48629;SDS011;34426;52.180;4.462;2022-11-20T08:53:39;37.83;;;23.52;;
48629;SDS011;34426;52.180;4.462;2022-11-20T08:56:05;31.10;;;22.67;;
48629;SDS011;34426;52.180;4.462;2022-11-20T08:58:33;37.78;;;23.48;;
48629;SDS011;34426;52.180;4.462;2022-11-20T09:01:00;30.17;;;22.30;;
48629;SDS011;34426;52.180;4.462;2022-11-20T09:03:26;31.48;;;22.95;;
48629;SDS011;34426;52.180;4.462;2022-11-20T09:05:56;27.05;;;21.48;;
48629;SDS011;34426;52.180;4.462;2022-11-20T09:08:22;28.40;;;21.65;;
48629;SDS011;34426;52.180;4.462;2022-11-20T09:10:51;31.38;;;22.98;;
48629;SDS011;34426;52.180;4.462;2022-11-20T09:13:17;29.55;;;21.60;;
48629;SDS011;34426;52.180;4.462;2022-11-20T09:15:45;30.73;;;22.52;;
48629;SDS011;34426;52.180;4.462;2022-11-20T09:18:12;32.53;;;22.08;;
48629;SDS011;34426;52.180;4.462;2022-11-20T09:20:38;27.45;;;22.02;;
48629;SDS011;34426;52.180;4.462;2022-11-20T09:23:04;32.47;;;23.15;;
48629;SDS011;34426;52.180;4.462;2022-11-20T09:25:30;29.75;;;22.23;;
48629;SDS011;34426;52.180;4.462;2022-11-20T09:27:57;31.65;;;23.35;;
48629;SDS011;34426;52.180;4.462;2022-11-20T09:30:24;28.83;;;21.38;;
48629;SDS011;34426;52.180;4.462;2022-11-20T09:32:52;34.63;;;23.13;;
48629;SDS011;34426;52.180;4.462;2022-11-20T09:35:18;32.22;;;25.00;;
48629;SDS011;34426;52.180;4.462;2022-11-20T09:37:44;33.70;;;26.17;;
48629;SDS011;34426;52.180;4.462;2022-11-20T09:40:16;38.97;;;29.17;;
48629;SDS011;34426;52.180;4.462;2022-11-20T09:45:15;34.08;;;22.52;;
48629;SDS011;34426;52.180;4.462;2022-11-20T09:47:46;31.73;;;22.83;;
48629;SDS011;34426;52.180;4.462;2022-11-20T09:50:23;29.15;;;22.88;;
48629;SDS011;34426;52.180;4.462;2022-11-20T09:52:53;29.40;;;22.35;;
48629;SDS011;34426;52.180;4.462;2022-11-20T09:55:21;33.28;;;22.58;;
48629;SDS011;34426;52.180;4.462;2022-11-20T09:57:47;30.58;;;22.20;;
48629;SDS011;34426;52.180;4.462;2022-11-20T10:00:15;33.40;;;23.85;;
48629;SDS011;34426;52.180;4.462;2022-11-20T10:02:43;34.22;;;24.13;;
48629;SDS011;34426;52.180;4.462;2022-11-20T10:05:11;32.72;;;23.20;;
48629;SDS011;34426;52.180;4.462;2022-11-20T10:07:41;35.83;;;23.50;;
48629;SDS011;34426;52.180;4.462;2022-11-20T10:10:13;31.17;;;24.23;;
48629;SDS011;34426;52.180;4.462;2022-11-20T10:12:42;30.55;;;23.42;;
48629;SDS011;34426;52.180;4.462;2022-11-20T10:17:53;36.22;;;25.25;;
48629;SDS011;34426;52.180;4.462;2022-11-20T10:20:26;41.95;;;27.48;;
48629;SDS011;34426;52.180;4.462;2022-11-20T10:22:59;41.22;;;30.73;;
48629;SDS011;34426;52.180;4.462;2022-11-20T10:25:32;52.75;;;36.45;;
48629;SDS011;34426;52.180;4.462;2022-11-20T10:28:11;40.63;;;28.58;;
48629;SDS011;34426;52.180;4.462;2022-11-20T10:30:42;42.10;;;28.58;;
48629;SDS011;34426;52.180;4.462;2022-11-20T10:33:13;37.08;;;26.10;;
48629;SDS011;34426;52.180;4.462;2022-11-20T10:35:41;36.70;;;27.25;;
48629;SDS011;34426;52.180;4.462;2022-11-20T10:38:12;40.28;;;27.80;;
48629;SDS011;34426;52.180;4.462;2022-11-20T10:40:40;39.90;;;28.48;;
48629;SDS011;34426;52.180;4.462;2022-11-20T10:43:08;42.30;;;29.08;;
48629;SDS011;34426;52.180;4.462;2022-11-20T10:45:38;42.67;;;28.60;;
48629;SDS011;34426;52.180;4.462;2022-11-20T10:48:15;45.90;;;27.85;;
48629;SDS011;34426;52.180;4.462;2022-11-20T10:50:44;41.28;;;30.08;;
48629;SDS011;34426;52.180;4.462;2022-11-20T10:53:14;38.95;;;28.75;;
48629;SDS011;34426;52.180;4.462;2022-11-20T10:55:44;46.40;;;31.85;;
48629;SDS011;34426;52.180;4.462;2022-11-20T10:58:13;61.35;;;36.78;;
48629;SDS011;34426;52.180;4.462;2022-11-20T11:00:39;96.47;;;49.25;;
48629;SDS011;34426;52.180;4.462;2022-11-20T11:03:10;109.93;;;56.25;;
48629;SDS011;34426;52.180;4.462;2022-11-20T11:05:40;85.85;;;46.53;;
48629;SDS011;34426;52.180;4.462;2022-11-20T11:08:10;72.47;;;41.42;;
48629;SDS011;34426;52.180;4.462;2022-11-20T11:10:39;59.42;;;34.92;;
48629;SDS011;34426;52.180;4.462;2022-11-20T11:13:05;61.90;;;34.28;;
48629;SDS011;34426;52.180;4.462;2022-11-20T11:15:36;52.10;;;33.90;;
48629;SDS011;34426;52.180;4.462;2022-11-20T11:18:03;43.75;;;30.27;;
48629;SDS011;34426;52.180;4.462;2022-11-20T11:20:29;43.45;;;30.55;;
48629;SDS011;34426;52.180;4.462;2022-11-20T11:22:56;45.97;;;31.65;;
48629;SDS011;34426;52.180;4.462;2022-11-20T11:25:23;43.53;;;30.00;;
48629;SDS011;34426;52.180;4.462;2022-11-20T11:27:52;40.53;;;28.70;;
48629;SDS011;34426;52.180;4.462;2022-11-20T11:30:19;44.47;;;30.45;;
48629;SDS011;34426;52.180;4.462;2022-11-20T11:32:45;45.88;;;29.10;;
48629;SDS011;34426;52.180;4.462;2022-11-20T11:35:22;45.72;;;29.52;;
48629;SDS011;34426;52.180;4.462;2022-11-20T11:37:48;47.45;;;30.42;;
48629;SDS011;34426;52.180;4.462;2022-11-20T11:40:15;44.60;;;30.55;;
48629;SDS011;34426;52.180;4.462;2022-11-20T11:42:42;50.35;;;31.40;;
48629;SDS011;34426;52.180;4.462;2022-11-20T11:45:13;42.08;;;29.92;;
48629;SDS011;34426;52.180;4.462;2022-11-20T11:47:43;47.15;;;31.25;;
48629;SDS011;34426;52.180;4.462;2022-11-20T11:50:14;64.55;;;38.17;;
48629;SDS011;34426;52.180;4.462;2022-11-20T11:52:42;104.00;;;53.28;;
48629;SDS011;34426;52.180;4.462;2022-11-20T11:55:09;119.30;;;63.72;;
48629;SDS011;34426;52.180;4.462;2022-11-20T11:57:41;106.43;;;57.65;;
48629;SDS011;34426;52.180;4.462;2022-11-20T12:00:09;72.97;;;41.75;;
48629;SDS011;34426;52.180;4.462;2022-11-20T12:02:38;52.42;;;32.50;;
48629;SDS011;34426;52.180;4.462;2022-11-20T12:05:15;42.50;;;29.63;;
48629;SDS011;34426;52.180;4.462;2022-11-20T12:07:43;45.17;;;30.60;;
48629;SDS011;34426;52.180;4.462;2022-11-20T12:10:14;42.45;;;30.17;;
48629;SDS011;34426;52.180;4.462;2022-11-20T12:12:41;37.63;;;29.80;;
48629;SDS011;34426;52.180;4.462;2022-11-20T12:15:09;42.30;;;30.88;;
48629;SDS011;34426;52.180;4.462;2022-11-20T12:17:38;41.83;;;30.50;;
48629;SDS011;34426;52.180;4.462;2022-11-20T12:20:10;51.08;;;34.95;;
48629;SDS011;34426;52.180;4.462;2022-11-20T12:22:39;64.38;;;41.40;;
48629;SDS011;34426;52.180;4.462;2022-11-20T12:25:07;50.15;;;35.10;;
48629;SDS011;34426;52.180;4.462;2022-11-20T12:27:44;45.60;;;32.60;;
48629;SDS011;34426;52.180;4.462;2022-11-20T12:30:14;44.42;;;32.63;;
48629;SDS011;34426;52.180;4.462;2022-11-20T12:35:35;52.85;;;36.97;;
48629;SDS011;34426;52.180;4.462;2022-11-20T12:38:08;43.72;;;32.22;;
48629;SDS011;34426;52.180;4.462;2022-11-20T12:40:39;46.70;;;32.75;;
48629;SDS011;34426;52.180;4.462;2022-11-20T12:43:11;46.42;;;33.60;;
48629;SDS011;34426;52.180;4.462;2022-11-20T12:51:16;49.42;;;32.55;;
48629;SDS011;34426;52.180;4.462;2022-11-20T12:53:48;48.35;;;33.47;;
48629;SDS011;34426;52.180;4.462;2022-11-20T12:56:20;51.85;;;34.38;;
48629;SDS011;34426;52.180;4.462;2022-11-20T12:58:51;50.58;;;34.47;;
48629;SDS011;34426;52.180;4.462;2022-11-20T13:01:21;51.25;;;34.63;;
48629;SDS011;34426;52.180;4.462;2022-11-20T13:03:50;55.38;;;35.95;;
48629;SDS011;34426;52.180;4.462;2022-11-20T13:06:21;58.72;;;38.53;;
48629;SDS011;34426;52.180;4.462;2022-11-20T13:08:49;55.33;;;36.75;;
48629;SDS011;34426;52.180;4.462;2022-11-20T13:11:19;64.82;;;37.75;;
48629;SDS011;34426;52.180;4.462;2022-11-20T13:13:52;60.13;;;38.85;;
48629;SDS011;34426;52.180;4.462;2022-11-20T13:16:23;60.38;;;37.92;;
48629;SDS011;34426;52.180;4.462;2022-11-20T13:18:51;66.07;;;40.55;;
48629;SDS011;34426;52.180;4.462;2022-11-20T13:21:18;68.88;;;41.50;;
48629;SDS011;34426;52.180;4.462;2022-11-20T13:23:47;75.28;;;44.75;;
48629;SDS011;34426;52.180;4.462;2022-11-20T13:26:18;77.35;;;49.38;;
48629;SDS011;34426;52.180;4.462;2022-11-20T13:28:45;72.88;;;44.30;;
48629;SDS011;34426;52.180;4.462;2022-11-20T13:31:23;68.38;;;42.78;;
48629;SDS011;34426;52.180;4.462;2022-11-20T13:33:49;67.70;;;42.08;;
48629;SDS011;34426;52.180;4.462;2022-11-20T13:36:21;70.97;;;42.78;;
48629;SDS011;34426;52.180;4.462;2022-11-20T13:38:50;69.90;;;41.38;;
48629;SDS011;34426;52.180;4.462;2022-11-20T13:41:23;66.68;;;42.30;;
48629;SDS011;34426;52.180;4.462;2022-11-20T13:43:51;66.85;;;40.85;;
48629;SDS011;34426;52.180;4.462;2022-11-20T13:46:18;62.65;;;39.35;;
48629;SDS011;34426;52.180;4.462;2022-11-20T13:48:44;68.10;;;41.33;;
48629;SDS011;34426;52.180;4.462;2022-11-20T13:51:16;75.88;;;43.92;;
48629;SDS011;34426;52.180;4.462;2022-11-20T13:53:57;72.20;;;40.97;;
48629;SDS011;34426;52.180;4.462;2022-11-20T13:56:29;74.78;;;41.72;;
48629;SDS011;34426;52.180;4.462;2022-11-20T13:59:02;71.22;;;42.00;;
48629;SDS011;34426;52.180;4.462;2022-11-20T14:01:29;69.68;;;41.03;;
48629;SDS011;34426;52.180;4.462;2022-11-20T14:03:56;71.07;;;42.17;;
48629;SDS011;34426;52.180;4.462;2022-11-20T14:06:24;69.18;;;42.10;;
48629;SDS011;34426;52.180;4.462;2022-11-20T14:08:51;74.18;;;44.15;;
48629;SDS011;34426;52.180;4.462;2022-11-20T14:11:20;73.57;;;43.60;;
48629;SDS011;34426;52.180;4.462;2022-11-20T14:13:59;74.30;;;43.00;;
48629;SDS011;34426;52.180;4.462;2022-11-20T14:16:26;73.68;;;43.60;;
48629;SDS011;34426;52.180;4.462;2022-11-20T14:18:52;77.13;;;43.28;;
48629;SDS011;34426;52.180;4.462;2022-11-20T14:21:22;66.70;;;40.88;;
48629;SDS011;34426;52.180;4.462;2022-11-20T14:23:51;73.65;;;42.80;;
48629;SDS011;34426;52.180;4.462;2022-11-20T14:26:19;70.95;;;42.92;;
48629;SDS011;34426;52.180;4.462;2022-11-20T14:28:47;75.00;;;43.30;;
48629;SDS011;34426;52.180;4.462;2022-11-20T14:31:17;77.30;;;44.60;;
48629;SDS011;34426;52.180;4.462;2022-11-20T14:33:45;79.03;;;44.67;;
48629;SDS011;34426;52.180;4.462;2022-11-20T14:36:16;84.00;;;45.10;;
48629;SDS011;34426;52.180;4.462;2022-11-20T14:38:43;85.57;;;45.67;;
48629;SDS011;34426;52.180;4.462;2022-11-20T14:41:15;81.35;;;46.30;;